Aleksin, Russia
Current Conditions -  °F | °C
As of 9:00 AM on Thursday 29 Jan 2015 (Local Time) from UUMO Reporting Station
Overcast Overcast  
Wind Chill: 18°   Ceiling: 1000
Heat Index: 27°   Visibility: 6mi
Dew Point: 21°   Wind: 9mph
Humidity: 80%   Direction: 200°SSW
Pressure: 29.74"   Gusts: NA
Location:  54.52°N, 37.09°E
Report Text: UUMO 290600Z 20004MPS 9999 BKN010 OVC033 M03/M06 Q1007 NOSIGRMK QFE740/0987 26920342
Loading
Personal Weather Stations






























Interactive Weather Map New forecast layout! Learn more

10-Day Weather Forecast

Advertisements
Track Severe Weather on mobile